sensor_id;sensor_type;location;lat;lon;timestamp;P1;durP1;ratioP1;P2;durP2;ratioP2
21837;SDS011;11081;45.946;6.140;2022-08-02T00:00:32;1.90;;;1.45;;
21837;SDS011;11081;45.946;6.140;2022-08-02T00:03:01;1.77;;;1.20;;
21837;SDS011;11081;45.946;6.140;2022-08-02T00:05:29;3.05;;;1.50;;
21837;SDS011;11081;45.946;6.140;2022-08-02T00:07:57;2.40;;;1.42;;
21837;SDS011;11081;45.946;6.140;2022-08-02T00:10:25;2.78;;;1.40;;
21837;SDS011;11081;45.946;6.140;2022-08-02T00:12:55;1.40;;;1.30;;
21837;SDS011;11081;45.946;6.140;2022-08-02T00:15:24;1.35;;;1.23;;
21837;SDS011;11081;45.946;6.140;2022-08-02T00:17:52;1.77;;;1.25;;
21837;SDS011;11081;45.946;6.140;2022-08-02T00:20:22;1.40;;;1.30;;
21837;SDS011;11081;45.946;6.140;2022-08-02T00:22:50;3.03;;;1.25;;
21837;SDS011;11081;45.946;6.140;2022-08-02T00:25:18;1.98;;;1.45;;
21837;SDS011;11081;45.946;6.140;2022-08-02T00:27:46;3.50;;;1.40;;
21837;SDS011;11081;45.946;6.140;2022-08-02T00:30:14;6.68;;;1.48;;
21837;SDS011;11081;45.946;6.140;2022-08-02T00:32:42;3.60;;;1.20;;
21837;SDS011;11081;45.946;6.140;2022-08-02T00:35:10;3.70;;;1.38;;
21837;SDS011;11081;45.946;6.140;2022-08-02T00:37:40;1.80;;;1.50;;
21837;SDS011;11081;45.946;6.140;2022-08-02T00:40:08;2.03;;;1.35;;
21837;SDS011;11081;45.946;6.140;2022-08-02T00:42:37;1.50;;;1.30;;
21837;SDS011;11081;45.946;6.140;2022-08-02T00:45:05;3.10;;;1.58;;
21837;SDS011;11081;45.946;6.140;2022-08-02T00:47:34;3.95;;;1.67;;
21837;SDS011;11081;45.946;6.140;2022-08-02T00:50:03;2.28;;;1.20;;
21837;SDS011;11081;45.946;6.140;2022-08-02T00:52:32;3.03;;;1.63;;
21837;SDS011;11081;45.946;6.140;2022-08-02T00:55:01;1.75;;;1.40;;
21837;SDS011;11081;45.946;6.140;2022-08-02T00:57:29;2.47;;;1.45;;
21837;SDS011;11081;45.946;6.140;2022-08-02T00:59:57;2.65;;;1.65;;
21837;SDS011;11081;45.946;6.140;2022-08-02T01:02:25;2.03;;;1.58;;
21837;SDS011;11081;45.946;6.140;2022-08-02T01:04:53;1.90;;;1.38;;
21837;SDS011;11081;45.946;6.140;2022-08-02T01:07:21;1.98;;;1.27;;
21837;SDS011;11081;45.946;6.140;2022-08-02T01:09:49;2.17;;;1.40;;
21837;SDS011;11081;45.946;6.140;2022-08-02T01:12:18;2.38;;;1.45;;
21837;SDS011;11081;45.946;6.140;2022-08-02T01:14:48;2.38;;;1.63;;
21837;SDS011;11081;45.946;6.140;2022-08-02T01:17:19;5.68;;;1.60;;
21837;SDS011;11081;45.946;6.140;2022-08-02T01:19:56;2.05;;;1.45;;
21837;SDS011;11081;45.946;6.140;2022-08-02T01:22:37;2.65;;;1.25;;
21837;SDS011;11081;45.946;6.140;2022-08-02T01:25:31;3.63;;;1.40;;
21837;SDS011;11081;45.946;6.140;2022-08-02T01:31:04;2.67;;;1.50;;
21837;SDS011;11081;45.946;6.140;2022-08-02T01:33:39;5.35;;;1.60;;
21837;SDS011;11081;45.946;6.140;2022-08-02T01:36:12;2.20;;;1.40;;
21837;SDS011;11081;45.946;6.140;2022-08-02T01:38:45;2.85;;;1.80;;
21837;SDS011;11081;45.946;6.140;2022-08-02T01:41:17;1.67;;;1.40;;
21837;SDS011;11081;45.946;6.140;2022-08-02T01:43:48;1.77;;;1.30;;
21837;SDS011;11081;45.946;6.140;2022-08-02T01:46:20;1.25;;;1.15;;
21837;SDS011;11081;45.946;6.140;2022-08-02T01:48:49;5.00;;;1.70;;
21837;SDS011;11081;45.946;6.140;2022-08-02T01:51:20;2.28;;;1.60;;
21837;SDS011;11081;45.946;6.140;2022-08-02T01:54:10;5.72;;;1.30;;
21837;SDS011;11081;45.946;6.140;2022-08-02T01:56:41;4.10;;;1.70;;
21837;SDS011;11081;45.946;6.140;2022-08-02T01:59:13;2.75;;;1.35;;
21837;SDS011;11081;45.946;6.140;2022-08-02T02:01:45;2.60;;;1.45;;
21837;SDS011;11081;45.946;6.140;2022-08-02T02:04:16;4.72;;;1.70;;
21837;SDS011;11081;45.946;6.140;2022-08-02T02:06:47;2.20;;;1.48;;
21837;SDS011;11081;45.946;6.140;2022-08-02T02:09:16;3.13;;;1.25;;
21837;SDS011;11081;45.946;6.140;2022-08-02T02:11:45;1.60;;;1.40;;
21837;SDS011;11081;45.946;6.140;2022-08-02T02:14:36;1.95;;;1.45;;
21837;SDS011;11081;45.946;6.140;2022-08-02T02:17:05;1.90;;;1.60;;
21837;SDS011;11081;45.946;6.140;2022-08-02T02:19:54;1.75;;;1.40;;
21837;SDS011;11081;45.946;6.140;2022-08-02T02:22:25;1.73;;;1.38;;
21837;SDS011;11081;45.946;6.140;2022-08-02T02:24:53;1.90;;;1.60;;
21837;SDS011;11081;45.946;6.140;2022-08-02T02:27:21;2.85;;;1.88;;
21837;SDS011;11081;45.946;6.140;2022-08-02T02:29:51;2.10;;;1.67;;
21837;SDS011;11081;45.946;6.140;2022-08-02T02:32:22;2.42;;;1.40;;
21837;SDS011;11081;45.946;6.140;2022-08-02T02:34:54;3.00;;;1.63;;
21837;SDS011;11081;45.946;6.140;2022-08-02T02:37:22;3.72;;;1.60;;
21837;SDS011;11081;45.946;6.140;2022-08-02T02:39:54;4.05;;;1.48;;
21837;SDS011;11081;45.946;6.140;2022-08-02T02:42:25;2.10;;;1.42;;
21837;SDS011;11081;45.946;6.140;2022-08-02T02:44:57;2.17;;;1.52;;
21837;SDS011;11081;45.946;6.140;2022-08-02T02:47:26;3.47;;;1.67;;
21837;SDS011;11081;45.946;6.140;2022-08-02T02:50:07;3.75;;;1.40;;
21837;SDS011;11081;45.946;6.140;2022-08-02T02:52:36;2.70;;;1.73;;
21837;SDS011;11081;45.946;6.140;2022-08-02T02:55:06;2.85;;;1.77;;
21837;SDS011;11081;45.946;6.140;2022-08-02T02:57:36;2.35;;;1.52;;
21837;SDS011;11081;45.946;6.140;2022-08-02T03:00:08;7.28;;;1.50;;
21837;SDS011;11081;45.946;6.140;2022-08-02T03:02:38;2.25;;;1.42;;
21837;SDS011;11081;45.946;6.140;2022-08-02T03:05:09;5.03;;;1.70;;
21837;SDS011;11081;45.946;6.140;2022-08-02T03:07:38;1.85;;;1.42;;
21837;SDS011;11081;45.946;6.140;2022-08-02T03:10:07;2.88;;;1.80;;
21837;SDS011;11081;45.946;6.140;2022-08-02T03:12:36;4.60;;;1.60;;
21837;SDS011;11081;45.946;6.140;2022-08-02T03:15:06;3.30;;;1.67;;
21837;SDS011;11081;45.946;6.140;2022-08-02T03:17:37;2.10;;;1.50;;
21837;SDS011;11081;45.946;6.140;2022-08-02T03:20:08;5.65;;;1.80;;
21837;SDS011;11081;45.946;6.140;2022-08-02T03:22:37;1.60;;;1.33;;
21837;SDS011;11081;45.946;6.140;2022-08-02T03:25:06;3.22;;;1.55;;
21837;SDS011;11081;45.946;6.140;2022-08-02T03:27:35;2.60;;;1.50;;
21837;SDS011;11081;45.946;6.140;2022-08-02T03:30:04;3.45;;;1.50;;
21837;SDS011;11081;45.946;6.140;2022-08-02T03:32:35;4.53;;;1.65;;
21837;SDS011;11081;45.946;6.140;2022-08-02T03:35:05;1.95;;;1.38;;
21837;SDS011;11081;45.946;6.140;2022-08-02T03:37:35;4.80;;;1.45;;
21837;SDS011;11081;45.946;6.140;2022-08-02T03:40:05;2.10;;;1.70;;
21837;SDS011;11081;45.946;6.140;2022-08-02T03:42:35;3.03;;;1.50;;
21837;SDS011;11081;45.946;6.140;2022-08-02T03:45:07;4.10;;;1.40;;
21837;SDS011;11081;45.946;6.140;2022-08-02T03:47:38;2.08;;;1.60;;
21837;SDS011;11081;45.946;6.140;2022-08-02T03:50:08;4.53;;;1.58;;
21837;SDS011;11081;45.946;6.140;2022-08-02T03:52:39;1.80;;;1.45;;
21837;SDS011;11081;45.946;6.140;2022-08-02T03:55:09;2.85;;;1.42;;
21837;SDS011;11081;45.946;6.140;2022-08-02T03:57:39;4.70;;;1.60;;
21837;SDS011;11081;45.946;6.140;2022-08-02T04:00:09;2.17;;;1.50;;
21837;SDS011;11081;45.946;6.140;2022-08-02T04:02:40;2.78;;;1.75;;
21837;SDS011;11081;45.946;6.140;2022-08-02T04:05:08;3.00;;;1.40;;
21837;SDS011;11081;45.946;6.140;2022-08-02T04:07:37;2.10;;;1.55;;
21837;SDS011;11081;45.946;6.140;2022-08-02T04:10:25;2.40;;;1.42;;
21837;SDS011;11081;45.946;6.140;2022-08-02T04:12:53;3.47;;;1.63;;
21837;SDS011;11081;45.946;6.140;2022-08-02T04:15:22;2.40;;;1.70;;
21837;SDS011;11081;45.946;6.140;2022-08-02T04:17:53;2.78;;;1.50;;
21837;SDS011;11081;45.946;6.140;2022-08-02T04:20:23;2.28;;;1.48;;
21837;SDS011;11081;45.946;6.140;2022-08-02T04:22:56;2.65;;;1.65;;
21837;SDS011;11081;45.946;6.140;2022-08-02T04:25:27;3.83;;;1.50;;
21837;SDS011;11081;45.946;6.140;2022-08-02T04:28:06;2.85;;;1.33;;
21837;SDS011;11081;45.946;6.140;2022-08-02T04:30:44;2.08;;;1.50;;
21837;SDS011;11081;45.946;6.140;2022-08-02T04:33:14;2.40;;;1.70;;
21837;SDS011;11081;45.946;6.140;2022-08-02T04:35:43;2.47;;;1.48;;
21837;SDS011;11081;45.946;6.140;2022-08-02T04:38:12;3.10;;;1.80;;
21837;SDS011;11081;45.946;6.140;2022-08-02T04:40:48;3.22;;;1.50;;
21837;SDS011;11081;45.946;6.140;2022-08-02T04:43:17;3.55;;;1.52;;
21837;SDS011;11081;45.946;6.140;2022-08-02T04:45:46;2.75;;;1.80;;
21837;SDS011;11081;45.946;6.140;2022-08-02T04:48:17;2.13;;;1.52;;
21837;SDS011;11081;45.946;6.140;2022-08-02T04:50:45;2.72;;;1.73;;
21837;SDS011;11081;45.946;6.140;2022-08-02T04:53:13;1.67;;;1.58;;
21837;SDS011;11081;45.946;6.140;2022-08-02T04:55:42;2.08;;;1.40;;
21837;SDS011;11081;45.946;6.140;2022-08-02T04:58:10;4.15;;;1.88;;
21837;SDS011;11081;45.946;6.140;2022-08-02T05:00:58;3.05;;;1.80;;
21837;SDS011;11081;45.946;6.140;2022-08-02T05:03:27;2.45;;;1.70;;
21837;SDS011;11081;45.946;6.140;2022-08-02T05:05:55;4.20;;;1.70;;
21837;SDS011;11081;45.946;6.140;2022-08-02T05:08:23;4.25;;;1.38;;
21837;SDS011;11081;45.946;6.140;2022-08-02T05:10:51;7.28;;;1.80;;
21837;SDS011;11081;45.946;6.140;2022-08-02T05:13:19;2.75;;;1.70;;
21837;SDS011;11081;45.946;6.140;2022-08-02T05:15:47;4.00;;;1.80;;
21837;SDS011;11081;45.946;6.140;2022-08-02T05:18:16;3.30;;;1.70;;
21837;SDS011;11081;45.946;6.140;2022-08-02T05:20:45;3.75;;;1.88;;
21837;SDS011;11081;45.946;6.140;2022-08-02T05:23:13;1.90;;;1.65;;
21837;SDS011;11081;45.946;6.140;2022-08-02T05:25:41;3.50;;;1.80;;
21837;SDS011;11081;45.946;6.140;2022-08-02T05:28:09;1.80;;;1.55;;
21837;SDS011;11081;45.946;6.140;2022-08-02T05:30:38;2.05;;;1.60;;
21837;SDS011;11081;45.946;6.140;2022-08-02T05:33:06;2.20;;;1.67;;
21837;SDS011;11081;45.946;6.140;2022-08-02T05:35:34;3.15;;;1.70;;
21837;SDS011;11081;45.946;6.140;2022-08-02T05:38:04;2.35;;;1.65;;
21837;SDS011;11081;45.946;6.140;2022-08-02T05:40:35;3.45;;;2.00;;
21837;SDS011;11081;45.946;6.140;2022-08-02T05:43:20;6.60;;;2.22;;
21837;SDS011;11081;45.946;6.140;2022-08-02T05:45:49;3.65;;;1.48;;
21837;SDS011;11081;45.946;6.140;2022-08-02T05:48:19;2.35;;;1.73;;
21837;SDS011;11081;45.946;6.140;2022-08-02T05:50:55;4.18;;;1.88;;
21837;SDS011;11081;45.946;6.140;2022-08-02T05:53:35;5.43;;;1.85;;
21837;SDS011;11081;45.946;6.140;2022-08-02T05:56:08;6.38;;;1.60;;
21837;SDS011;11081;45.946;6.140;2022-08-02T05:58:48;2.25;;;1.52;;
21837;SDS011;11081;45.946;6.140;2022-08-02T06:01:21;5.75;;;2.30;;
21837;SDS011;11081;45.946;6.140;2022-08-02T06:03:55;5.82;;;2.03;;
21837;SDS011;11081;45.946;6.140;2022-08-02T06:06:26;11.43;;;2.50;;
21837;SDS011;11081;45.946;6.140;2022-08-02T06:08:59;8.65;;;2.60;;
21837;SDS011;11081;45.946;6.140;2022-08-02T06:11:33;7.95;;;2.80;;
21837;SDS011;11081;45.946;6.140;2022-08-02T06:14:04;7.85;;;2.17;;
21837;SDS011;11081;45.946;6.140;2022-08-02T06:16:33;9.13;;;2.63;;
21837;SDS011;11081;45.946;6.140;2022-08-02T06:19:07;7.80;;;2.33;;
21837;SDS011;11081;45.946;6.140;2022-08-02T06:21:35;42.10;;;4.32;;
21837;SDS011;11081;45.946;6.140;2022-08-02T06:24:28;17.90;;;3.60;;
21837;SDS011;11081;45.946;6.140;2022-08-02T06:26:59;32.67;;;3.67;;
21837;SDS011;11081;45.946;6.140;2022-08-02T06:29:30;21.52;;;3.25;;
21837;SDS011;11081;45.946;6.140;2022-08-02T06:32:04;27.35;;;3.30;;
21837;SDS011;11081;45.946;6.140;2022-08-02T06:34:37;22.05;;;3.58;;
21837;SDS011;11081;45.946;6.140;2022-08-02T06:37:08;36.13;;;4.00;;
21837;SDS011;11081;45.946;6.140;2022-08-02T06:39:47;25.30;;;3.45;;
21837;SDS011;11081;45.946;6.140;2022-08-02T06:42:20;14.48;;;2.58;;
21837;SDS011;11081;45.946;6.140;2022-08-02T06:44:54;18.52;;;2.92;;
21837;SDS011;11081;45.946;6.140;2022-08-02T06:47:23;19.42;;;2.90;;
21837;SDS011;11081;45.946;6.140;2022-08-02T06:49:52;18.27;;;3.03;;
21837;SDS011;11081;45.946;6.140;2022-08-02T06:52:23;12.02;;;2.88;;
21837;SDS011;11081;45.946;6.140;2022-08-02T06:54:57;12.48;;;2.90;;
21837;SDS011;11081;45.946;6.140;2022-08-02T06:57:26;11.00;;;2.15;;
21837;SDS011;11081;45.946;6.140;2022-08-02T06:59:55;7.03;;;2.22;;
21837;SDS011;11081;45.946;6.140;2022-08-02T07:02:23;8.73;;;2.38;;
21837;SDS011;11081;45.946;6.140;2022-08-02T07:04:52;7.13;;;2.72;;
21837;SDS011;11081;45.946;6.140;2022-08-02T07:07:21;5.20;;;2.47;;
21837;SDS011;11081;45.946;6.140;2022-08-02T07:09:49;5.68;;;2.00;;
21837;SDS011;11081;45.946;6.140;2022-08-02T07:12:28;4.80;;;2.08;;
21837;SDS011;11081;45.946;6.140;2022-08-02T07:14:57;3.03;;;2.00;;
21837;SDS011;11081;45.946;6.140;2022-08-02T07:17:25;4.00;;;2.50;;
21837;SDS011;11081;45.946;6.140;2022-08-02T07:19:53;3.60;;;2.40;;
21837;SDS011;11081;45.946;6.140;2022-08-02T07:22:22;3.75;;;2.17;;
21837;SDS011;11081;45.946;6.140;2022-08-02T07:24:53;5.07;;;2.35;;
21837;SDS011;11081;45.946;6.140;2022-08-02T07:27:21;9.93;;;3.50;;
21837;SDS011;11081;45.946;6.140;2022-08-02T07:29:51;11.80;;;3.13;;
21837;SDS011;11081;45.946;6.140;2022-08-02T07:32:20;9.02;;;2.78;;
21837;SDS011;11081;45.946;6.140;2022-08-02T07:34:52;4.22;;;2.13;;
21837;SDS011;11081;45.946;6.140;2022-08-02T07:37:21;6.28;;;2.40;;
21837;SDS011;11081;45.946;6.140;2022-08-02T07:40:11;6.03;;;2.38;;
21837;SDS011;11081;45.946;6.140;2022-08-02T07:42:46;4.10;;;2.10;;
21837;SDS011;11081;45.946;6.140;2022-08-02T07:45:16;3.30;;;2.40;;
21837;SDS011;11081;45.946;6.140;2022-08-02T07:47:45;7.93;;;2.20;;
21837;SDS011;11081;45.946;6.140;2022-08-02T07:50:13;6.95;;;2.47;;
21837;SDS011;11081;45.946;6.140;2022-08-02T07:52:43;5.75;;;2.25;;
21837;SDS011;11081;45.946;6.140;2022-08-02T07:55:13;4.30;;;2.50;;
21837;SDS011;11081;45.946;6.140;2022-08-02T07:57:43;4.57;;;2.25;;
21837;SDS011;11081;45.946;6.140;2022-08-02T08:00:13;7.05;;;2.50;;
21837;SDS011;11081;45.946;6.140;2022-08-02T08:02:44;4.13;;;1.98;;
21837;SDS011;11081;45.946;6.140;2022-08-02T08:05:13;7.63;;;2.38;;
21837;SDS011;11081;45.946;6.140;2022-08-02T08:07:41;4.80;;;2.55;;
21837;SDS011;11081;45.946;6.140;2022-08-02T08:10:09;3.00;;;2.33;;
21837;SDS011;11081;45.946;6.140;2022-08-02T08:12:38;2.75;;;2.15;;
21837;SDS011;11081;45.946;6.140;2022-08-02T08:15:06;8.38;;;2.33;;
21837;SDS011;11081;45.946;6.140;2022-08-02T08:17:35;6.97;;;2.33;;
21837;SDS011;11081;45.946;6.140;2022-08-02T08:20:05;4.72;;;2.13;;
21837;SDS011;11081;45.946;6.140;2022-08-02T08:22:39;4.00;;;2.25;;
21837;SDS011;11081;45.946;6.140;2022-08-02T08:25:07;4.47;;;2.58;;
21837;SDS011;11081;45.946;6.140;2022-08-02T08:27:35;6.13;;;2.90;;
21837;SDS011;11081;45.946;6.140;2022-08-02T08:30:04;4.43;;;2.22;;
21837;SDS011;11081;45.946;6.140;2022-08-02T08:32:33;5.85;;;2.28;;
21837;SDS011;11081;45.946;6.140;2022-08-02T08:35:01;3.80;;;2.10;;
21837;SDS011;11081;45.946;6.140;2022-08-02T08:37:34;4.00;;;2.25;;
21837;SDS011;11081;45.946;6.140;2022-08-02T08:40:02;4.38;;;2.22;;
21837;SDS011;11081;45.946;6.140;2022-08-02T08:42:31;8.88;;;2.70;;
21837;SDS011;11081;45.946;6.140;2022-08-02T08:45:00;10.48;;;2.63;;
21837;SDS011;11081;45.946;6.140;2022-08-02T08:47:32;6.70;;;2.45;;
21837;SDS011;11081;45.946;6.140;2022-08-02T08:50:02;3.80;;;2.30;;
21837;SDS011;11081;45.946;6.140;2022-08-02T08:52:35;4.95;;;2.45;;
21837;SDS011;11081;45.946;6.140;2022-08-02T08:55:09;4.93;;;2.30;;
21837;SDS011;11081;45.946;6.140;2022-08-02T08:57:39;9.80;;;3.33;;
21837;SDS011;11081;45.946;6.140;2022-08-02T09:00:09;9.07;;;2.42;;
21837;SDS011;11081;45.946;6.140;2022-08-02T09:02:39;9.07;;;2.53;;
21837;SDS011;11081;45.946;6.140;2022-08-02T09:05:08;10.43;;;2.78;;
21837;SDS011;11081;45.946;6.140;2022-08-02T09:07:39;4.93;;;2.97;;
21837;SDS011;11081;45.946;6.140;2022-08-02T09:13:05;19.33;;;3.28;;
21837;SDS011;11081;45.946;6.140;2022-08-02T09:15:58;4.40;;;2.28;;
21837;SDS011;11081;45.946;6.140;2022-08-02T09:18:39;4.80;;;2.30;;
21837;SDS011;11081;45.946;6.140;2022-08-02T09:21:10;6.50;;;2.83;;
21837;SDS011;11081;45.946;6.140;2022-08-02T09:23:42;4.60;;;2.65;;
21837;SDS011;11081;45.946;6.140;2022-08-02T09:26:11;5.50;;;2.50;;
21837;SDS011;11081;45.946;6.140;2022-08-02T09:28:41;5.05;;;2.60;;
21837;SDS011;11081;45.946;6.140;2022-08-02T09:31:10;3.72;;;2.38;;
21837;SDS011;11081;45.946;6.140;2022-08-02T09:33:40;4.68;;;2.60;;
21837;SDS011;11081;45.946;6.140;2022-08-02T09:36:10;3.42;;;2.25;;
21837;SDS011;11081;45.946;6.140;2022-08-02T09:38:39;4.85;;;2.20;;
21837;SDS011;11081;45.946;6.140;2022-08-02T09:41:22;6.18;;;2.47;;
21837;SDS011;11081;45.946;6.140;2022-08-02T09:43:51;3.08;;;2.20;;
21837;SDS011;11081;45.946;6.140;2022-08-02T09:46:32;4.15;;;2.63;;
21837;SDS011;11081;45.946;6.140;2022-08-02T09:49:04;4.53;;;2.10;;
21837;SDS011;11081;45.946;6.140;2022-08-02T09:51:35;4.43;;;2.40;;
21837;SDS011;11081;45.946;6.140;2022-08-02T09:54:05;6.47;;;2.20;;
21837;SDS011;11081;45.946;6.140;2022-08-02T09:56:46;4.95;;;1.95;;
21837;SDS011;11081;45.946;6.140;2022-08-02T09:59:16;3.10;;;2.40;;
21837;SDS011;11081;45.946;6.140;2022-08-02T10:01:46;2.72;;;2.15;;
21837;SDS011;11081;45.946;6.140;2022-08-02T10:04:36;3.65;;;2.08;;
21837;SDS011;11081;45.946;6.140;2022-08-02T10:07:19;7.00;;;2.33;;
21837;SDS011;11081;45.946;6.140;2022-08-02T10:09:48;7.38;;;1.95;;
21837;SDS011;11081;45.946;6.140;2022-08-02T10:12:19;5.07;;;2.03;;
21837;SDS011;11081;45.946;6.140;2022-08-02T10:14:48;3.30;;;2.00;;
21837;SDS011;11081;45.946;6.140;2022-08-02T10:17:17;2.63;;;1.80;;
21837;SDS011;11081;45.946;6.140;2022-08-02T10:19:46;5.70;;;2.20;;
21837;SDS011;11081;45.946;6.140;2022-08-02T10:22:29;4.97;;;2.20;;
21837;SDS011;11081;45.946;6.140;2022-08-02T10:24:58;4.90;;;1.80;;
21837;SDS011;11081;45.946;6.140;2022-08-02T10:27:30;2.47;;;2.05;;
21837;SDS011;11081;45.946;6.140;2022-08-02T10:30:19;2.55;;;2.10;;
21837;SDS011;11081;45.946;6.140;2022-08-02T10:32:49;3.42;;;1.48;;
21837;SDS011;11081;45.946;6.140;2022-08-02T10:35:21;7.35;;;2.00;;
21837;SDS011;11081;45.946;6.140;2022-08-02T10:37:53;2.50;;;2.25;;
21837;SDS011;11081;45.946;6.140;2022-08-02T10:40:41;7.20;;;2.10;;
21837;SDS011;11081;45.946;6.140;2022-08-02T10:43:11;4.05;;;2.00;;
21837;SDS011;11081;45.946;6.140;2022-08-02T10:45:40;5.32;;;2.20;;
21837;SDS011;11081;45.946;6.140;2022-08-02T10:48:12;10.25;;;1.98;;
21837;SDS011;11081;45.946;6.140;2022-08-02T10:50:53;2.75;;;1.70;;
21837;SDS011;11081;45.946;6.140;2022-08-02T10:53:22;9.82;;;1.85;;
21837;SDS011;11081;45.946;6.140;2022-08-02T10:55:51;1.63;;;1.52;;
21837;SDS011;11081;45.946;6.140;2022-08-02T10:58:22;3.92;;;2.15;;
21837;SDS011;11081;45.946;6.140;2022-08-02T11:00:55;5.38;;;1.85;;
21837;SDS011;11081;45.946;6.140;2022-08-02T11:03:37;7.78;;;2.00;;
21837;SDS011;11081;45.946;6.140;2022-08-02T11:06:07;2.17;;;1.75;;
21837;SDS011;11081;45.946;6.140;2022-08-02T11:11:59;5.07;;;2.40;;
21837;SDS011;11081;45.946;6.140;2022-08-02T11:14:30;3.97;;;1.65;;
21837;SDS011;11081;45.946;6.140;2022-08-02T11:17:13;4.72;;;1.85;;
21837;SDS011;11081;45.946;6.140;2022-08-02T11:22:43;2.53;;;2.20;;
21837;SDS011;11081;45.946;6.140;2022-08-02T11:28:21;4.90;;;1.92;;
21837;SDS011;11081;45.946;6.140;2022-08-02T11:30:59;4.38;;;2.17;;
21837;SDS011;11081;45.946;6.140;2022-08-02T11:33:32;3.88;;;1.95;;
21837;SDS011;11081;45.946;6.140;2022-08-02T11:36:03;2.83;;;1.85;;
21837;SDS011;11081;45.946;6.140;2022-08-02T11:38:32;3.88;;;2.13;;
21837;SDS011;11081;45.946;6.140;2022-08-02T11:41:01;3.70;;;2.00;;
21837;SDS011;11081;45.946;6.140;2022-08-02T11:43:35;2.00;;;1.65;;
21837;SDS011;11081;45.946;6.140;2022-08-02T11:46:10;3.83;;;1.83;;
21837;SDS011;11081;45.946;6.140;2022-08-02T11:48:40;3.72;;;1.52;;
21837;SDS011;11081;45.946;6.140;2022-08-02T11:51:10;4.45;;;2.10;;
21837;SDS011;11081;45.946;6.140;2022-08-02T11:53:40;12.07;;;2.03;;
21837;SDS011;11081;45.946;6.140;2022-08-02T11:56:11;4.78;;;1.65;;
21837;SDS011;11081;45.946;6.140;2022-08-02T11:59:03;2.15;;;1.90;;
21837;SDS011;11081;45.946;6.140;2022-08-02T12:01:34;5.50;;;2.05;;
21837;SDS011;11081;45.946;6.140;2022-08-02T12:04:14;4.78;;;2.13;;
21837;SDS011;11081;45.946;6.140;2022-08-02T12:06:54;2.38;;;1.67;;
21837;SDS011;11081;45.946;6.140;2022-08-02T12:09:24;1.92;;;1.58;;
21837;SDS011;11081;45.946;6.140;2022-08-02T12:11:54;7.72;;;1.80;;
21837;SDS011;11081;45.946;6.140;2022-08-02T12:14:23;4.38;;;1.80;;
21837;SDS011;11081;45.946;6.140;2022-08-02T12:16:54;3.03;;;1.90;;
21837;SDS011;11081;45.946;6.140;2022-08-02T12:19:40;6.88;;;1.70;;
21837;SDS011;11081;45.946;6.140;2022-08-02T12:22:13;2.10;;;1.60;;
21837;SDS011;11081;45.946;6.140;2022-08-02T12:24:44;4.07;;;1.90;;
21837;SDS011;11081;45.946;6.140;2022-08-02T12:27:27;2.70;;;1.60;;
21837;SDS011;11081;45.946;6.140;2022-08-02T12:29:57;5.07;;;1.88;;
21837;SDS011;11081;45.946;6.140;2022-08-02T12:32:28;2.05;;;1.67;;
21837;SDS011;11081;45.946;6.140;2022-08-02T12:35:00;1.98;;;1.73;;
21837;SDS011;11081;45.946;6.140;2022-08-02T12:37:34;2.78;;;1.63;;
21837;SDS011;11081;45.946;6.140;2022-08-02T12:40:18;3.05;;;1.38;;
21837;SDS011;11081;45.946;6.140;2022-08-02T12:42:52;3.58;;;1.55;;
21837;SDS011;11081;45.946;6.140;2022-08-02T12:45:22;2.67;;;1.30;;
21837;SDS011;11081;45.946;6.140;2022-08-02T12:47:52;3.00;;;1.35;;
21837;SDS011;11081;45.946;6.140;2022-08-02T12:50:23;2.65;;;1.60;;
21837;SDS011;11081;45.946;6.140;2022-08-02T12:53:01;3.78;;;1.60;;
21837;SDS011;11081;45.946;6.140;2022-08-02T12:55:32;2.47;;;1.38;;
21837;SDS011;11081;45.946;6.140;2022-08-02T12:58:23;2.65;;;1.48;;
21837;SDS011;11081;45.946;6.140;2022-08-02T13:00:52;1.67;;;1.35;;
21837;SDS011;11081;45.946;6.140;2022-08-02T13:03:24;2.17;;;1.13;;
21837;SDS011;11081;45.946;6.140;2022-08-02T13:06:12;3.33;;;1.95;;
21837;SDS011;11081;45.946;6.140;2022-08-02T13:09:00;5.35;;;1.58;;
21837;SDS011;11081;45.946;6.140;2022-08-02T13:11:28;2.10;;;1.67;;
21837;SDS011;11081;45.946;6.140;2022-08-02T13:13:56;1.50;;;1.30;;
21837;SDS011;11081;45.946;6.140;2022-08-02T13:16:24;2.92;;;1.30;;
21837;SDS011;11081;45.946;6.140;2022-08-02T13:18:58;3.17;;;1.10;;
21837;SDS011;11081;45.946;6.140;2022-08-02T13:21:26;3.78;;;1.33;;
21837;SDS011;11081;45.946;6.140;2022-08-02T13:24:14;2.53;;;1.20;;
21837;SDS011;11081;45.946;6.140;2022-08-02T13:27:02;2.53;;;1.60;;
21837;SDS011;11081;45.946;6.140;2022-08-02T13:29:34;3.42;;;1.20;;
21837;SDS011;11081;45.946;6.140;2022-08-02T13:32:02;3.10;;;1.38;;
21837;SDS011;11081;45.946;6.140;2022-08-02T13:34:32;2.25;;;1.33;;
21837;SDS011;11081;45.946;6.140;2022-08-02T13:37:00;4.65;;;1.20;;
21837;SDS011;11081;45.946;6.140;2022-08-02T13:39:28;2.20;;;1.45;;
21837;SDS011;11081;45.946;6.140;2022-08-02T13:41:56;1.77;;;1.08;;
21837;SDS011;11081;45.946;6.140;2022-08-02T13:44:24;1.10;;;1.00;;
21837;SDS011;11081;45.946;6.140;2022-08-02T13:46:52;1.10;;;1.00;;
21837;SDS011;11081;45.946;6.140;2022-08-02T13:49:20;1.08;;;0.73;;
21837;SDS011;11081;45.946;6.140;2022-08-02T13:52:10;1.50;;;1.00;;
21837;SDS011;11081;45.946;6.140;2022-08-02T13:54:39;1.00;;;0.90;;
21837;SDS011;11081;45.946;6.140;2022-08-02T13:57:07;3.28;;;1.10;;
21837;SDS011;11081;45.946;6.140;2022-08-02T13:59:35;3.20;;;1.00;;
21837;SDS011;11081;45.946;6.140;2022-08-02T14:02:23;1.85;;;1.20;;
21837;SDS011;11081;45.946;6.140;2022-08-02T14:04:51;1.42;;;1.10;;
21837;SDS011;11081;45.946;6.140;2022-08-02T14:07:21;10.15;;;1.38;;
21837;SDS011;11081;45.946;6.140;2022-08-02T14:09:49;1.80;;;1.30;;
21837;SDS011;11081;45.946;6.140;2022-08-02T14:12:17;3.85;;;1.30;;
21837;SDS011;11081;45.946;6.140;2022-08-02T14:14:45;3.30;;;1.20;;
21837;SDS011;11081;45.946;6.140;2022-08-02T14:17:13;4.80;;;1.20;;
21837;SDS011;11081;45.946;6.140;2022-08-02T14:19:44;2.97;;;1.27;;
21837;SDS011;11081;45.946;6.140;2022-08-02T14:22:12;3.03;;;1.05;;
21837;SDS011;11081;45.946;6.140;2022-08-02T14:24:41;1.95;;;1.50;;
21837;SDS011;11081;45.946;6.140;2022-08-02T14:27:10;2.17;;;1.10;;
21837;SDS011;11081;45.946;6.140;2022-08-02T14:29:38;2.65;;;1.40;;
21837;SDS011;11081;45.946;6.140;2022-08-02T14:32:07;4.95;;;1.60;;
21837;SDS011;11081;45.946;6.140;2022-08-02T14:34:35;1.13;;;1.02;;
21837;SDS011;11081;45.946;6.140;2022-08-02T14:37:03;2.08;;;1.33;;
21837;SDS011;11081;45.946;6.140;2022-08-02T14:39:31;2.67;;;1.10;;
21837;SDS011;11081;45.946;6.140;2022-08-02T14:42:21;2.28;;;1.45;;
21837;SDS011;11081;45.946;6.140;2022-08-02T14:44:49;1.23;;;1.10;;
21837;SDS011;11081;45.946;6.140;2022-08-02T14:47:17;2.25;;;1.30;;
21837;SDS011;11081;45.946;6.140;2022-08-02T14:49:45;2.33;;;1.27;;
21837;SDS011;11081;45.946;6.140;2022-08-02T14:52:16;1.30;;;1.08;;
21837;SDS011;11081;45.946;6.140;2022-08-02T14:54:44;3.97;;;1.25;;
21837;SDS011;11081;45.946;6.140;2022-08-02T14:57:12;3.60;;;1.30;;
21837;SDS011;11081;45.946;6.140;2022-08-02T14:59:42;1.63;;;1.27;;
21837;SDS011;11081;45.946;6.140;2022-08-02T15:02:10;1.90;;;1.30;;
21837;SDS011;11081;45.946;6.140;2022-08-02T15:04:39;7.22;;;1.30;;
21837;SDS011;11081;45.946;6.140;2022-08-02T15:07:09;3.17;;;1.20;;
21837;SDS011;11081;45.946;6.140;2022-08-02T15:09:38;4.00;;;1.10;;
21837;SDS011;11081;45.946;6.140;2022-08-02T15:12:07;2.53;;;1.10;;
21837;SDS011;11081;45.946;6.140;2022-08-02T15:14:36;2.08;;;1.00;;
21837;SDS011;11081;45.946;6.140;2022-08-02T15:17:05;2.10;;;1.35;;
21837;SDS011;11081;45.946;6.140;2022-08-02T15:19:33;1.55;;;1.10;;
21837;SDS011;11081;45.946;6.140;2022-08-02T15:22:22;5.38;;;1.60;;
21837;SDS011;11081;45.946;6.140;2022-08-02T15:24:50;2.05;;;1.15;;
21837;SDS011;11081;45.946;6.140;2022-08-02T15:27:18;5.43;;;1.33;;
21837;SDS011;11081;45.946;6.140;2022-08-02T15:29:46;1.30;;;1.00;;